Аэропорт: Храброво. Калининград

ICAO: UMKK

METAR:
2019/03/24 18:00
UMKK 241800Z 25003MPS 9999 FEW020 03/01 Q1018 R24/CLRD60 NOSIG RMK QFE762/1016
METAR:
2019/03/24 15:39
TAF UMKK 241401Z 2415/2515 28006MPS 9999 BKN011 
      BECMG 2416/2417 25005MPS 
      TEMPO 2500/2506 3100 BR BKN007 
      TEMPO 2509/2515 4000 -RA BR BKN010